Latest Weather Observations for Little Bay

IDN60801

Issued at 10:05 am EDT Saturday 31 January 2015 (issued every 30 minutes, with the page automatically refreshed every 10 minutes)

About weather observations | Map of weather stations | Latest weather observations for NSW | Other Formats
Station Details ID: 066051 Name: LITTLE BAY (THE COAST GOLF CLUB) Lat: -33.98 Lon: 151.25 Height: 22.0 m
Data from the previous 72 hours. | See also: Recent months for locations in New South Wales
Date/Time
EDT
Temp
°C
App
Temp
°C
Dew
Point
Rel
Hum
%
Delta-T
°C
Wind Press
QNH
hPa
Press
MSL
hPa
Rain
since 9 am
mm
Dir
 
Spd
km/h
Gust
km/h
Spd
kts
Gust
kts
31/10:00am - - - - - S 7 11 4 6 - - -
31/09:30am - - - - - SSW 6 9 3 5 - - -
31/09:00am - - - - - WSW 6 9 3 5 - - -
31/08:30am - - - - - WSW 7 9 4 5 - - -
31/08:00am - - - - - WSW 6 9 3 5 - - -
31/07:30am - - - - - WNW 7 9 4 5 - - -
31/07:00am - - - - - WNW 6 9 3 5 - - -
31/06:30am - - - - - W 6 11 3 6 - - -
31/06:00am - - - - - W 6 7 3 4 - - -
31/05:30am - - - - - WSW 9 11 5 6 - - -
31/05:00am - - - - - WSW 9 9 5 5 - - -
31/04:30am - - - - - SW 7 9 4 5 - - -
31/04:00am - - - - - WSW 7 9 4 5 - - -
31/03:30am - - - - - WSW 9 11 5 6 - - -
31/03:00am - - - - - SW 7 13 4 7 - - -
31/02:30am - - - - - WSW 9 11 5 6 - - -
31/02:00am - - - - - WSW 7 9 4 5 - - -
31/01:30am - - - - - WSW 11 15 6 8 - - -
31/01:00am - - - - - WSW 7 11 4 6 - - -
31/12:30am - - - - - SSW 13 22 7 12 - - -
31/12:00am - - - - - SSW 15 24 8 13 - - -
 
Date/Time
EDT
Temp
°C
App
Temp
°C
Dew
Point
Rel
Hum
%
Delta-T
°C
Wind Press
QNH
hPa
Press
MSL
hPa
Rain
since 9 am
mm
Dir
 
Spd
km/h
Gust
km/h
Spd
kts
Gust
kts
30/11:30pm - - - - - SSW 20 30 11 16 - - -
30/11:00pm - - - - - SSW 22 30 12 16 - - -
30/10:30pm - - - - - S 22 32 12 17 - - -
30/10:00pm - - - - - S 24 39 13 21 - - -
30/09:30pm - - - - - S 26 35 14 19 - - -
30/09:00pm - - - - - S 24 33 13 18 - - -
30/08:30pm - - - - - S 24 33 13 18 - - -
30/08:00pm - - - - - S 24 35 13 19 - - -
30/07:30pm - - - - - S 24 35 13 19 - - -
30/07:00pm - - - - - S 22 33 12 18 - - -
30/06:30pm - - - - - S 19 26 10 14 - - -
30/06:00pm - - - - - S 15 20 8 11 - - -
30/05:30pm - - - - - S 15 19 8 10 - - -
30/05:00pm - - - - - SSE 13 19 7 10 - - -
30/04:30pm - - - - - SSE 17 19 9 10 - - -
30/04:00pm - - - - - SSE 17 24 9 13 - - -
30/03:30pm - - - - - SSE 20 26 11 14 - - -
30/03:00pm - - - - - SSE 19 24 10 13 - - -
30/02:30pm - - - - - S 20 28 11 15 - - -
30/02:00pm - - - - - S 26 35 14 19 - - -
30/01:30pm - - - - - S 28 39 15 21 - - -
30/01:00pm - - - - - SSW 30 43 16 23 - - -
30/12:30pm - - - - - S 28 35 15 19 - - -
30/12:00pm - - - - - S 22 32 12 17 - - -
30/11:30am - - - - - S 26 33 14 18 - - -
30/11:00am - - - - - SSW 24 33 13 18 - - -
30/10:30am - - - - - WSW 13 20 7 11 - - -
30/10:00am - - - - - SW 17 30 9 16 - - -
30/09:30am - - - - - W 13 20 7 11 - - -
30/09:00am - - - - - W 17 24 9 13 - - -
30/08:30am - - - - - W 17 22 9 12 - - -
30/08:00am - - - - - W 17 24 9 13 - - -
30/07:30am - - - - - W 15 24 8 13 - - -
30/07:00am - - - - - W 15 20 8 11 - - -
30/06:30am - - - - - W 11 17 6 9 - - -
30/06:00am - - - - - W 13 20 7 11 - - -
30/05:30am - - - - - W 11 19 6 10 - - -
30/05:00am - - - - - W 9 15 5 8 - - -
30/04:30am - - - - - W 9 13 5 7 - - -
30/04:00am - - - - - WSW 9 13 5 7 - - -
30/03:30am - - - - - W 11 17 6 9 - - -
30/03:00am - - - - - W 13 19 7 10 - - -
30/02:30am - - - - - W 7 13 4 7 - - -
30/02:00am - - - - - WSW 9 15 5 8 - - -
30/01:30am - - - - - WSW 13 19 7 10 - - -
30/01:00am - - - - - WSW 9 15 5 8 - - -
30/12:30am - - - - - WSW 13 19 7 10 - - -
30/12:00am - - - - - SW 24 43 13 23 - - -
 
Date/Time
EDT
Temp
°C
App
Temp
°C
Dew
Point
Rel
Hum
%
Delta-T
°C
Wind Press
QNH
hPa
Press
MSL
hPa
Rain
since 9 am
mm
Dir
 
Spd
km/h
Gust
km/h
Spd
kts
Gust
kts
29/11:30pm - - - - - SSW 28 39 15 21 - - -
29/11:00pm - - - - - SSW 30 43 16 23 - - -
29/10:30pm - - - - - SSW 32 44 17 24 - - -
29/10:00pm - - - - - SSW 30 44 16 24 - - -
29/09:30pm - - - - - SSW 32 46 17 25 - - -
29/09:00pm - - - - - SSW 33 50 18 27 - - -
29/08:30pm - - - - - SSW 37 50 20 27 - - -
29/08:00pm - - - - - SSW 35 50 19 27 - - -
29/07:30pm - - - - - S 37 46 20 25 - - -
29/07:00pm - - - - - S 37 50 20 27 - - -
29/06:44pm - - - - - S 37 56 20 30 - - -
29/06:30pm - - - - - S 37 50 20 27 - - -
29/06:00pm - - - - - S 35 48 19 26 - - -
29/05:30pm - - - - - S 37 52 20 28 - - -
29/05:00pm - - - - - S 37 48 20 26 - - -
29/04:30pm - - - - - S 39 56 21 30 - - -
29/04:09pm - - - - - S 39 59 21 32 - - -
29/04:00pm - - - - - S 39 57 21 31 - - -
29/03:30pm - - - - - S 35 50 19 27 - - -
29/03:00pm - - - - - S 37 54 20 29 - - -
29/02:30pm - - - - - S 41 56 22 30 - - -
29/02:00pm - - - - - S 33 46 18 25 - - -
29/01:30pm - - - - - SSW 30 44 16 24 - - -
29/01:00pm - - - - - SSW 26 39 14 21 - - -
29/12:30pm - - - - - SSW 32 44 17 24 - - -
29/12:00pm - - - - - SSW 32 50 17 27 - - -
29/11:59am - - - - - SSW 32 50 17 27 - - -
29/11:30am - - - - - SSW 30 43 16 23 - - -
29/11:00am - - - - - SSW 28 43 15 23 - - -
29/10:30am - - - - - SSW 30 43 16 23 - - -
29/10:00am - - - - - SSW 30 48 16 26 - - -
29/09:30am - - - - - SSW 24 33 13 18 - - -
29/09:07am - - - - - SW 32 50 17 27 - - -
29/09:00am - - - - - SSW 32 50 17 27 - - -
29/08:33am - - - - - SSW 33 52 18 28 - - -
29/08:30am - - - - - SSW 35 48 19 26 - - -
29/08:00am - - - - - SSW 30 48 16 26 - - -
29/07:30am - - - - - SSW 32 46 17 25 - - -
29/07:00am - - - - - SSW 33 50 18 27 - - -
29/06:30am - - - - - SSW 30 52 16 28 - - -
29/06:27am - - - - - SSW 28 46 15 25 - - -
29/06:00am - - - - - SSW 35 46 19 25 - - -
29/05:30am - - - - - SSW 33 52 18 28 - - -
29/05:00am - - - - - SW 20 33 11 18 - - -
29/04:30am - - - - - SSW 28 39 15 21 - - -
29/04:00am - - - - - SSW 30 41 16 22 - - -
29/03:49am - - - - - SSW 28 46 15 25 - - -
29/03:30am - - - - - SSW 32 50 17 27 - - -
29/03:28am - - - - - SSW 30 50 16 27 - - -
29/03:00am - - - - - SSW 32 44 17 24 - - -
29/02:48am - - - - - SSW 30 48 16 26 - - -
29/02:30am - - - - - SSW 24 33 13 18 - - -
29/02:00am - - - - - SSW 30 46 16 25 - - -
29/01:30am - - - - - SSW 30 46 16 25 - - -
29/01:01am - - - - - SSW 28 50 15 27 - - -
29/01:00am - - - - - SSW 26 43 14 23 - - -
29/12:30am - - - - - SSW 33 46 18 25 - - -
29/12:03am - - - - - SSW 32 50 17 27 - - -
29/12:00am - - - - - SSW 33 50 18 27 - - -
 
Date/Time
EDT
Temp
°C
App
Temp
°C
Dew
Point
Rel
Hum
%
Delta-T
°C
Wind Press
QNH
hPa
Press
MSL
hPa
Rain
since 9 am
mm
Dir
 
Spd
km/h
Gust
km/h
Spd
kts
Gust
kts
28/11:30pm - - - - - SSW 24 37 13 20 - - -
28/11:00pm - - - - - SSW 28 37 15 20 - - -
28/10:30pm - - - - - SSW 30 44 16 24 - - -
28/10:00pm - - - - - S 32 41 17 22 - - -
28/09:30pm - - - - - SSW 19 32 10 17 - - -
28/09:00pm - - - - - SSW 22 33 12 18 - - -
28/08:30pm - - - - - S 32 43 17 23 - - -
28/08:00pm - - - - - S 32 43 17 23 - - -
28/07:30pm - - - - - SSW 24 35 13 19 - - -
28/07:00pm - - - - - SSW 30 41 16 22 - - -
28/06:30pm - - - - - SSW 26 33 14 18 - - -
28/06:00pm - - - - - S 20 28 11 15 - - -
28/05:30pm - - - - - SSE 22 35 12 19 - - -
28/05:00pm - - - - - S 26 43 14 23 - - -
28/04:30pm - - - - - S 20 28 11 15 - - -
28/04:00pm - - - - - SSE 20 28 11 15 - - -
28/03:30pm - - - - - SSE 20 32 11 17 - - -
28/03:00pm - - - - - SSW 13 20 7 11 - - -
28/02:30pm - - - - - SW 11 15 6 8 - - -
28/02:00pm - - - - - SE 22 37 12 20 - - -
28/01:30pm - - - - - SE 20 30 11 16 - - -
28/01:00pm - - - - - SE 19 26 10 14 - - -
28/12:30pm - - - - - SE 20 26 11 14 - - -
28/12:00pm - - - - - SE 24 32 13 17 - - -
28/11:30am - - - - - SSE 26 35 14 19 - - -
28/11:00am - - - - - SSE 22 28 12 15 - - -
28/10:30am - - - - - SSE 24 35 13 19 - - -

Other Formats:

Comma delimited format used in spreadsheet applications
http://www.bom.gov.au/fwo/IDN60801/IDN60801.94780.axf

JavaScript Object Notation format (JSON) in row-major order
http://www.bom.gov.au/fwo/IDN60801/IDN60801.94780.json